sensor_id;sensor_type;location;lat;lon;timestamp;temperature;humidity
35246;DHT22;21379;50.962;6.960;2023-03-23T05:35:01;12.20;99.90
35246;DHT22;21379;50.962;6.960;2023-03-23T05:37:30;12.20;99.90
35246;DHT22;21379;50.962;6.960;2023-03-23T05:40:06;12.20;99.90
35246;DHT22;21379;50.962;6.960;2023-03-23T05:42:56;12.20;99.90
35246;DHT22;21379;50.962;6.960;2023-03-23T05:45:44;12.20;99.90
35246;DHT22;21379;50.962;6.960;2023-03-23T05:48:12;12.20;99.90
35246;DHT22;21379;50.962;6.960;2023-03-23T05:50:41;12.20;99.90
35246;DHT22;21379;50.962;6.960;2023-03-23T05:53:08;12.20;99.90
35246;DHT22;21379;50.962;6.960;2023-03-23T05:55:38;12.30;99.90
35246;DHT22;21379;50.962;6.960;2023-03-23T05:58:15;12.30;99.90
35246;DHT22;21379;50.962;6.960;2023-03-23T06:00:44;12.20;99.90
35246;DHT22;21379;50.962;6.960;2023-03-23T06:03:26;12.20;99.90
35246;DHT22;21379;50.962;6.960;2023-03-23T06:06:04;12.20;99.90
35246;DHT22;21379;50.962;6.960;2023-03-23T06:08:37;12.20;99.90
35246;DHT22;21379;50.962;6.960;2023-03-23T06:11:05;12.20;99.90
35246;DHT22;21379;50.962;6.960;2023-03-23T06:13:37;12.20;99.90
35246;DHT22;21379;50.962;6.960;2023-03-23T06:16:08;12.30;99.90
35246;DHT22;21379;50.962;6.960;2023-03-23T06:18:51;12.30;99.90
35246;DHT22;21379;50.962;6.960;2023-03-23T06:21:34;12.30;99.90
35246;DHT22;21379;50.962;6.960;2023-03-23T06:24:09;12.40;99.90
35246;DHT22;21379;50.962;6.960;2023-03-23T06:26:38;12.40;99.90
35246;DHT22;21379;50.962;6.960;2023-03-23T06:29:09;12.50;99.90
35246;DHT22;21379;50.962;6.960;2023-03-23T06:31:44;12.50;99.90
35246;DHT22;21379;50.962;6.960;2023-03-23T06:34:12;12.50;99.90
35246;DHT22;21379;50.962;6.960;2023-03-23T06:36:59;12.60;99.90
35246;DHT22;21379;50.962;6.960;2023-03-23T06:39:33;12.60;99.90
35246;DHT22;21379;50.962;6.960;2023-03-23T06:42:12;12.60;99.90
35246;DHT22;21379;50.962;6.960;2023-03-23T06:44:45;12.70;99.90
35246;DHT22;21379;50.962;6.960;2023-03-23T06:47:12;12.70;99.90
35246;DHT22;21379;50.962;6.960;2023-03-23T06:49:45;12.80;99.90
35246;DHT22;21379;50.962;6.960;2023-03-23T06:52:26;12.80;99.90
35246;DHT22;21379;50.962;6.960;2023-03-23T06:54:53;12.90;99.90
35246;DHT22;21379;50.962;6.960;2023-03-23T06:57:21;12.90;99.90
35246;DHT22;21379;50.962;6.960;2023-03-23T06:59:50;13.00;99.90
35246;DHT22;21379;50.962;6.960;2023-03-23T07:02:18;13.00;99.90
35246;DHT22;21379;50.962;6.960;2023-03-23T07:04:48;13.00;99.90
35246;DHT22;21379;50.962;6.960;2023-03-23T07:07:20;13.00;99.90
35246;DHT22;21379;50.962;6.960;2023-03-23T07:09:54;13.00;99.90
35246;DHT22;21379;50.962;6.960;2023-03-23T07:12:24;13.10;99.90
35246;DHT22;21379;50.962;6.960;2023-03-23T07:14:52;13.10;99.90
35246;DHT22;21379;50.962;6.960;2023-03-23T07:17:19;13.10;99.90
35246;DHT22;21379;50.962;6.960;2023-03-23T07:20:04;13.10;99.90
35246;DHT22;21379;50.962;6.960;2023-03-23T07:22:32;13.10;99.90
35246;DHT22;21379;50.962;6.960;2023-03-23T07:25:09;13.20;99.90
35246;DHT22;21379;50.962;6.960;2023-03-23T07:27:57;13.20;99.90
35246;DHT22;21379;50.962;6.960;2023-03-23T07:30:24;13.20;99.90
35246;DHT22;21379;50.962;6.960;2023-03-23T07:32:51;13.30;99.90
35246;DHT22;21379;50.962;6.960;2023-03-23T07:35:19;13.30;99.90
35246;DHT22;21379;50.962;6.960;2023-03-23T07:38:18;13.30;99.90
35246;DHT22;21379;50.962;6.960;2023-03-23T07:40:49;13.40;99.90
35246;DHT22;21379;50.962;6.960;2023-03-23T07:43:19;13.50;99.90
35246;DHT22;21379;50.962;6.960;2023-03-23T07:46:05;13.40;99.90
35246;DHT22;21379;50.962;6.960;2023-03-23T07:48:42;13.50;99.90
35246;DHT22;21379;50.962;6.960;2023-03-23T07:51:09;13.50;99.90
35246;DHT22;21379;50.962;6.960;2023-03-23T07:53:37;13.50;99.90
35246;DHT22;21379;50.962;6.960;2023-03-23T07:56:24;13.50;99.90
35246;DHT22;21379;50.962;6.960;2023-03-23T07:58:58;13.50;99.90
35246;DHT22;21379;50.962;6.960;2023-03-23T08:01:26;13.70;99.90
35246;DHT22;21379;50.962;6.960;2023-03-23T08:04:13;13.70;99.90
35246;DHT22;21379;50.962;6.960;2023-03-23T08:07:03;13.70;99.90
35246;DHT22;21379;50.962;6.960;2023-03-23T08:09:47;13.80;99.90
35246;DHT22;21379;50.962;6.960;2023-03-23T08:12:34;13.90;99.90
35246;DHT22;21379;50.962;6.960;2023-03-23T08:15:20;13.90;99.90
35246;DHT22;21379;50.962;6.960;2023-03-23T08:18:04;13.90;99.90
35246;DHT22;21379;50.962;6.960;2023-03-23T08:21:04;14.00;99.90
35246;DHT22;21379;50.962;6.960;2023-03-23T08:23:56;14.00;99.90
35246;DHT22;21379;50.962;6.960;2023-03-23T08:26:45;14.00;99.90
35246;DHT22;21379;50.962;6.960;2023-03-23T08:29:26;13.90;99.90
35246;DHT22;21379;50.962;6.960;2023-03-23T08:32:00;13.90;99.90
35246;DHT22;21379;50.962;6.960;2023-03-23T08:34:49;13.90;99.90
35246;DHT22;21379;50.962;6.960;2023-03-23T08:37:35;14.00;99.90
35246;DHT22;21379;50.962;6.960;2023-03-23T08:40:14;14.10;99.90
35246;DHT22;21379;50.962;6.960;2023-03-23T08:42:56;14.10;99.90
35246;DHT22;21379;50.962;6.960;2023-03-23T08:45:27;14.20;99.90
35246;DHT22;21379;50.962;6.960;2023-03-23T08:48:03;14.20;99.90
35246;DHT22;21379;50.962;6.960;2023-03-23T08:50:33;14.20;99.90
35246;DHT22;21379;50.962;6.960;2023-03-23T08:53:01;14.30;99.90
35246;DHT22;21379;50.962;6.960;2023-03-23T08:55:36;14.40;99.90
35246;DHT22;21379;50.962;6.960;2023-03-23T08:58:26;14.40;99.90
35246;DHT22;21379;50.962;6.960;2023-03-23T09:01:18;14.30;99.90
35246;DHT22;21379;50.962;6.960;2023-03-23T09:04:11;14.20;99.90
35246;DHT22;21379;50.962;6.960;2023-03-23T09:06:49;14.20;99.90
35246;DHT22;21379;50.962;6.960;2023-03-23T09:09:16;14.20;99.90
35246;DHT22;21379;50.962;6.960;2023-03-23T09:11:43;14.20;99.90
35246;DHT22;21379;50.962;6.960;2023-03-23T09:14:10;14.30;99.90
35246;DHT22;21379;50.962;6.960;2023-03-23T09:16:40;14.30;99.90
35246;DHT22;21379;50.962;6.960;2023-03-23T09:19:08;14.30;99.90
35246;DHT22;21379;50.962;6.960;2023-03-23T09:21:35;14.40;99.90
35246;DHT22;21379;50.962;6.960;2023-03-23T09:24:03;14.40;99.90
35246;DHT22;21379;50.962;6.960;2023-03-23T09:26:31;14.50;99.90
35246;DHT22;21379;50.962;6.960;2023-03-23T09:28:58;14.50;99.90
35246;DHT22;21379;50.962;6.960;2023-03-23T09:31:25;14.60;99.90
35246;DHT22;21379;50.962;6.960;2023-03-23T09:33:54;14.70;99.90
35246;DHT22;21379;50.962;6.960;2023-03-23T09:36:23;14.80;99.90
35246;DHT22;21379;50.962;6.960;2023-03-23T09:38:51;14.80;99.90
35246;DHT22;21379;50.962;6.960;2023-03-23T09:41:34;14.80;99.90
35246;DHT22;21379;50.962;6.960;2023-03-23T09:44:07;14.80;99.90
35246;DHT22;21379;50.962;6.960;2023-03-23T09:46:48;14.70;99.90
35246;DHT22;21379;50.962;6.960;2023-03-23T09:49:21;14.70;99.90
35246;DHT22;21379;50.962;6.960;2023-03-23T09:51:51;14.80;99.90
35246;DHT22;21379;50.962;6.960;2023-03-23T09:54:24;14.90;99.90
35246;DHT22;21379;50.962;6.960;2023-03-23T09:56:53;14.80;99.90
35246;DHT22;21379;50.962;6.960;2023-03-23T09:59:24;14.90;99.90
35246;DHT22;21379;50.962;6.960;2023-03-23T10:01:54;14.90;99.90
35246;DHT22;21379;50.962;6.960;2023-03-23T10:04:31;14.80;99.90
35246;DHT22;21379;50.962;6.960;2023-03-23T10:07:08;14.80;99.90
35246;DHT22;21379;50.962;6.960;2023-03-23T10:09:36;14.90;99.90
35246;DHT22;21379;50.962;6.960;2023-03-23T10:12:09;15.00;99.90
35246;DHT22;21379;50.962;6.960;2023-03-23T10:14:52;14.80;99.90
35246;DHT22;21379;50.962;6.960;2023-03-23T10:17:27;15.00;99.90
35246;DHT22;21379;50.962;6.960;2023-03-23T10:20:05;15.30;99.90
35246;DHT22;21379;50.962;6.960;2023-03-23T10:22:40;15.40;99.90
35246;DHT22;21379;50.962;6.960;2023-03-23T10:25:16;15.60;99.90
35246;DHT22;21379;50.962;6.960;2023-03-23T10:27:49;15.50;99.90
35246;DHT22;21379;50.962;6.960;2023-03-23T10:30:24;15.20;99.90
35246;DHT22;21379;50.962;6.960;2023-03-23T10:32:56;15.10;99.90
35246;DHT22;21379;50.962;6.960;2023-03-23T10:35:29;14.90;99.90
35246;DHT22;21379;50.962;6.960;2023-03-23T10:38:02;14.80;99.90
35246;DHT22;21379;50.962;6.960;2023-03-23T10:40:31;14.60;99.90
35246;DHT22;21379;50.962;6.960;2023-03-23T10:42:59;14.60;99.90
35246;DHT22;21379;50.962;6.960;2023-03-23T10:45:27;14.50;99.90
35246;DHT22;21379;50.962;6.960;2023-03-23T10:48:13;14.60;99.90
35246;DHT22;21379;50.962;6.960;2023-03-23T10:50:50;14.60;99.90
35246;DHT22;21379;50.962;6.960;2023-03-23T10:53:30;14.60;99.90
35246;DHT22;21379;50.962;6.960;2023-03-23T10:56:00;14.60;99.90
35246;DHT22;21379;50.962;6.960;2023-03-23T10:58:30;14.50;99.90
35246;DHT22;21379;50.962;6.960;2023-03-23T11:00:58;14.60;99.90
35246;DHT22;21379;50.962;6.960;2023-03-23T11:03:37;14.70;99.90
35246;DHT22;21379;50.962;6.960;2023-03-23T11:06:08;14.60;99.90
35246;DHT22;21379;50.962;6.960;2023-03-23T11:08:46;14.70;99.90
35246;DHT22;21379;50.962;6.960;2023-03-23T11:11:16;14.80;99.90
35246;DHT22;21379;50.962;6.960;2023-03-23T11:13:45;14.80;99.90
35246;DHT22;21379;50.962;6.960;2023-03-23T11:16:23;14.80;99.90
35246;DHT22;21379;50.962;6.960;2023-03-23T11:18:50;15.00;99.90
35246;DHT22;21379;50.962;6.960;2023-03-23T11:21:20;15.00;99.90
35246;DHT22;21379;50.962;6.960;2023-03-23T11:23:50;15.00;99.90
35246;DHT22;21379;50.962;6.960;2023-03-23T11:26:20;15.20;99.90
35246;DHT22;21379;50.962;6.960;2023-03-23T11:28:52;15.20;99.90
35246;DHT22;21379;50.962;6.960;2023-03-23T11:31:22;15.10;99.90
35246;DHT22;21379;50.962;6.960;2023-03-23T11:33:55;15.00;99.90
35246;DHT22;21379;50.962;6.960;2023-03-23T11:36:31;15.10;99.90
35246;DHT22;21379;50.962;6.960;2023-03-23T11:38:59;15.00;99.90
35246;DHT22;21379;50.962;6.960;2023-03-23T11:41:33;15.00;99.90
35246;DHT22;21379;50.962;6.960;2023-03-23T11:44:08;15.00;99.90
35246;DHT22;21379;50.962;6.960;2023-03-23T11:46:43;14.90;99.90
35246;DHT22;21379;50.962;6.960;2023-03-23T11:49:18;14.80;99.90
35246;DHT22;21379;50.962;6.960;2023-03-23T11:51:52;14.80;99.90
35246;DHT22;21379;50.962;6.960;2023-03-23T11:54:26;14.50;99.90
35246;DHT22;21379;50.962;6.960;2023-03-23T11:56:56;14.30;99.90
35246;DHT22;21379;50.962;6.960;2023-03-23T11:59:28;14.10;99.90
35246;DHT22;21379;50.962;6.960;2023-03-23T12:02:03;14.20;99.90
35246;DHT22;21379;50.962;6.960;2023-03-23T12:04:39;14.20;99.90
35246;DHT22;21379;50.962;6.960;2023-03-23T12:07:37;14.30;99.90
35246;DHT22;21379;50.962;6.960;2023-03-23T12:10:17;14.50;99.90
35246;DHT22;21379;50.962;6.960;2023-03-23T12:12:53;14.60;99.90
35246;DHT22;21379;50.962;6.960;2023-03-23T12:15:27;14.80;99.90
35246;DHT22;21379;50.962;6.960;2023-03-23T12:18:02;14.80;99.90
35246;DHT22;21379;50.962;6.960;2023-03-23T12:20:39;14.90;99.90
35246;DHT22;21379;50.962;6.960;2023-03-23T12:23:21;15.10;99.90
35246;DHT22;21379;50.962;6.960;2023-03-23T12:25:58;15.40;99.90
35246;DHT22;21379;50.962;6.960;2023-03-23T12:28:36;16.00;99.90
35246;DHT22;21379;50.962;6.960;2023-03-23T12:31:11;16.70;99.90
35246;DHT22;21379;50.962;6.960;2023-03-23T12:33:48;17.20;99.90
35246;DHT22;21379;50.962;6.960;2023-03-23T12:36:26;17.50;99.90
35246;DHT22;21379;50.962;6.960;2023-03-23T12:39:25;16.70;99.90
35246;DHT22;21379;50.962;6.960;2023-03-23T12:42:01;16.30;99.90
35246;DHT22;21379;50.962;6.960;2023-03-23T12:44:35;16.10;99.90
35246;DHT22;21379;50.962;6.960;2023-03-23T12:47:21;15.80;99.90
35246;DHT22;21379;50.962;6.960;2023-03-23T12:49:54;15.70;99.90
35246;DHT22;21379;50.962;6.960;2023-03-23T12:52:25;15.60;99.90
35246;DHT22;21379;50.962;6.960;2023-03-23T12:54:59;15.50;99.90
35246;DHT22;21379;50.962;6.960;2023-03-23T12:57:32;15.40;99.90
35246;DHT22;21379;50.962;6.960;2023-03-23T13:00:07;15.40;99.90
35246;DHT22;21379;50.962;6.960;2023-03-23T13:02:42;15.60;99.90
35246;DHT22;21379;50.962;6.960;2023-03-23T13:05:25;15.70;99.90
35246;DHT22;21379;50.962;6.960;2023-03-23T13:07:56;15.70;99.90
35246;DHT22;21379;50.962;6.960;2023-03-23T13:10:32;16.10;99.90
35246;DHT22;21379;50.962;6.960;2023-03-23T13:13:02;16.10;99.90
35246;DHT22;21379;50.962;6.960;2023-03-23T13:15:35;16.10;99.90
35246;DHT22;21379;50.962;6.960;2023-03-23T13:18:09;15.80;99.90
35246;DHT22;21379;50.962;6.960;2023-03-23T13:20:53;15.70;99.90
35246;DHT22;21379;50.962;6.960;2023-03-23T13:23:23;15.80;99.90
35246;DHT22;21379;50.962;6.960;2023-03-23T13:25:56;15.90;99.90
35246;DHT22;21379;50.962;6.960;2023-03-23T13:28:25;15.60;99.90
35246;DHT22;21379;50.962;6.960;2023-03-23T13:30:59;15.60;99.90
35246;DHT22;21379;50.962;6.960;2023-03-23T13:33:30;15.70;99.90
35246;DHT22;21379;50.962;6.960;2023-03-23T13:36:07;15.80;99.90
35246;DHT22;21379;50.962;6.960;2023-03-23T13:38:36;15.70;99.90
35246;DHT22;21379;50.962;6.960;2023-03-23T13:41:11;15.70;99.90
35246;DHT22;21379;50.962;6.960;2023-03-23T13:43:40;15.40;99.90
35246;DHT22;21379;50.962;6.960;2023-03-23T13:46:12;14.80;99.90
35246;DHT22;21379;50.962;6.960;2023-03-23T13:49:01;14.60;99.90
35246;DHT22;21379;50.962;6.960;2023-03-23T13:51:35;14.70;99.90
35246;DHT22;21379;50.962;6.960;2023-03-23T13:54:23;14.80;99.90
35246;DHT22;21379;50.962;6.960;2023-03-23T13:56:56;15.10;99.90
35246;DHT22;21379;50.962;6.960;2023-03-23T13:59:34;15.90;99.90
35246;DHT22;21379;50.962;6.960;2023-03-23T14:02:26;16.10;99.90
35246;DHT22;21379;50.962;6.960;2023-03-23T14:04:54;16.10;99.90
35246;DHT22;21379;50.962;6.960;2023-03-23T14:07:21;16.10;99.90
35246;DHT22;21379;50.962;6.960;2023-03-23T14:09:51;16.20;99.90
35246;DHT22;21379;50.962;6.960;2023-03-23T14:12:25;16.30;99.90
35246;DHT22;21379;50.962;6.960;2023-03-23T14:14:57;16.40;99.90
35246;DHT22;21379;50.962;6.960;2023-03-23T14:17:29;16.30;99.90
35246;DHT22;21379;50.962;6.960;2023-03-23T14:19:58;16.30;99.90
35246;DHT22;21379;50.962;6.960;2023-03-23T14:22:37;16.00;99.90
35246;DHT22;21379;50.962;6.960;2023-03-23T14:25:12;15.90;99.90
35246;DHT22;21379;50.962;6.960;2023-03-23T14:27:40;15.80;99.90
35246;DHT22;21379;50.962;6.960;2023-03-23T14:30:12;15.90;99.90
35246;DHT22;21379;50.962;6.960;2023-03-23T14:32:39;15.90;99.90
35246;DHT22;21379;50.962;6.960;2023-03-23T14:35:12;15.70;99.90
35246;DHT22;21379;50.962;6.960;2023-03-23T14:37:39;15.70;99.90
35246;DHT22;21379;50.962;6.960;2023-03-23T14:40:13;15.70;99.90
35246;DHT22;21379;50.962;6.960;2023-03-23T14:42:42;15.60;99.90
35246;DHT22;21379;50.962;6.960;2023-03-23T14:45:14;15.50;99.90
35246;DHT22;21379;50.962;6.960;2023-03-23T14:47:45;15.50;99.90
35246;DHT22;21379;50.962;6.960;2023-03-23T14:50:25;15.40;99.90
35246;DHT22;21379;50.962;6.960;2023-03-23T14:52:52;15.40;99.90
35246;DHT22;21379;50.962;6.960;2023-03-23T14:55:21;15.30;99.90
35246;DHT22;21379;50.962;6.960;2023-03-23T14:57:50;15.10;99.90
35246;DHT22;21379;50.962;6.960;2023-03-23T15:00:21;15.00;99.90
35246;DHT22;21379;50.962;6.960;2023-03-23T15:02:50;14.90;99.90
35246;DHT22;21379;50.962;6.960;2023-03-23T15:05:21;14.90;99.90
35246;DHT22;21379;50.962;6.960;2023-03-23T15:07:52;15.00;99.90
35246;DHT22;21379;50.962;6.960;2023-03-23T15:10:21;15.10;99.90
35246;DHT22;21379;50.962;6.960;2023-03-23T15:12:51;15.30;99.90
35246;DHT22;21379;50.962;6.960;2023-03-23T15:15:26;15.50;99.90
35246;DHT22;21379;50.962;6.960;2023-03-23T15:17:54;15.60;99.90
35246;DHT22;21379;50.962;6.960;2023-03-23T15:20:23;15.80;99.90
35246;DHT22;21379;50.962;6.960;2023-03-23T15:22:51;16.00;99.90
35246;DHT22;21379;50.962;6.960;2023-03-23T15:25:20;16.20;99.90
35246;DHT22;21379;50.962;6.960;2023-03-23T15:27:54;16.30;99.90
35246;DHT22;21379;50.962;6.960;2023-03-23T15:30:31;16.50;99.90
35246;DHT22;21379;50.962;6.960;2023-03-23T15:33:02;16.40;99.90
35246;DHT22;21379;50.962;6.960;2023-03-23T15:35:34;16.30;99.90
35246;DHT22;21379;50.962;6.960;2023-03-23T15:38:03;16.30;99.90
35246;DHT22;21379;50.962;6.960;2023-03-23T15:40:33;16.40;99.90
35246;DHT22;21379;50.962;6.960;2023-03-23T15:43:16;16.50;99.90
35246;DHT22;21379;50.962;6.960;2023-03-23T15:45:53;16.50;99.90
35246;DHT22;21379;50.962;6.960;2023-03-23T15:48:21;16.30;99.90
35246;DHT22;21379;50.962;6.960;2023-03-23T15:50:49;16.10;99.90
35246;DHT22;21379;50.962;6.960;2023-03-23T15:53:26;16.10;99.90
35246;DHT22;21379;50.962;6.960;2023-03-23T15:55:54;16.00;99.90
35246;DHT22;21379;50.962;6.960;2023-03-23T15:58:22;16.00;99.90
35246;DHT22;21379;50.962;6.960;2023-03-23T16:00:50;15.90;99.90
35246;DHT22;21379;50.962;6.960;2023-03-23T16:03:21;16.00;99.90
35246;DHT22;21379;50.962;6.960;2023-03-23T16:05:50;16.10;99.90
35246;DHT22;21379;50.962;6.960;2023-03-23T16:08:16;16.20;99.90
35246;DHT22;21379;50.962;6.960;2023-03-23T16:10:43;16.20;99.90
35246;DHT22;21379;50.962;6.960;2023-03-23T16:13:10;16.10;99.90
35246;DHT22;21379;50.962;6.960;2023-03-23T16:15:39;15.90;99.90
35246;DHT22;21379;50.962;6.960;2023-03-23T16:18:06;15.80;99.90
35246;DHT22;21379;50.962;6.960;2023-03-23T16:20:33;15.70;99.90
35246;DHT22;21379;50.962;6.960;2023-03-23T16:22:59;15.70;99.90
35246;DHT22;21379;50.962;6.960;2023-03-23T16:25:26;15.70;99.90
35246;DHT22;21379;50.962;6.960;2023-03-23T16:27:53;15.70;99.90
35246;DHT22;21379;50.962;6.960;2023-03-23T16:30:22;15.80;99.90
35246;DHT22;21379;50.962;6.960;2023-03-23T16:32:50;15.80;99.90
35246;DHT22;21379;50.962;6.960;2023-03-23T16:35:18;15.80;99.90
35246;DHT22;21379;50.962;6.960;2023-03-23T16:37:46;15.70;99.90
35246;DHT22;21379;50.962;6.960;2023-03-23T16:40:13;15.70;99.90
35246;DHT22;21379;50.962;6.960;2023-03-23T16:42:41;15.60;99.90
35246;DHT22;21379;50.962;6.960;2023-03-23T16:45:09;15.60;99.90
35246;DHT22;21379;50.962;6.960;2023-03-23T16:47:36;15.60;99.90
35246;DHT22;21379;50.962;6.960;2023-03-23T16:50:07;15.50;99.90
35246;DHT22;21379;50.962;6.960;2023-03-23T16:52:37;15.50;99.90
35246;DHT22;21379;50.962;6.960;2023-03-23T16:55:04;15.50;99.90
35246;DHT22;21379;50.962;6.960;2023-03-23T16:57:32;15.50;99.90
35246;DHT22;21379;50.962;6.960;2023-03-23T17:00:00;15.50;99.90
35246;DHT22;21379;50.962;6.960;2023-03-23T17:02:27;15.40;99.90
35246;DHT22;21379;50.962;6.960;2023-03-23T17:04:54;15.40;99.90
35246;DHT22;21379;50.962;6.960;2023-03-23T17:07:22;15.40;99.90
35246;DHT22;21379;50.962;6.960;2023-03-23T17:09:49;15.30;99.90
35246;DHT22;21379;50.962;6.960;2023-03-23T17:12:16;15.30;99.90
35246;DHT22;21379;50.962;6.960;2023-03-23T17:14:43;15.30;99.90
35246;DHT22;21379;50.962;6.960;2023-03-23T17:17:10;15.20;99.90
35246;DHT22;21379;50.962;6.960;2023-03-23T17:19:37;15.20;99.90
35246;DHT22;21379;50.962;6.960;2023-03-23T17:22:04;15.20;99.90
35246;DHT22;21379;50.962;6.960;2023-03-23T17:24:33;15.20;99.90
35246;DHT22;21379;50.962;6.960;2023-03-23T17:27:00;15.10;99.90
35246;DHT22;21379;50.962;6.960;2023-03-23T17:29:26;15.10;99.90
35246;DHT22;21379;50.962;6.960;2023-03-23T17:31:53;15.00;99.90
35246;DHT22;21379;50.962;6.960;2023-03-23T17:34:20;14.90;99.90
35246;DHT22;21379;50.962;6.960;2023-03-23T17:36:47;15.00;99.90
35246;DHT22;21379;50.962;6.960;2023-03-23T17:39:14;14.90;99.90
35246;DHT22;21379;50.962;6.960;2023-03-23T17:41:43;14.90;99.90
35246;DHT22;21379;50.962;6.960;2023-03-23T17:44:09;14.90;99.90
35246;DHT22;21379;50.962;6.960;2023-03-23T17:46:36;14.90;99.90
35246;DHT22;21379;50.962;6.960;2023-03-23T17:49:03;14.80;99.90
35246;DHT22;21379;50.962;6.960;2023-03-23T17:51:30;14.70;99.90
35246;DHT22;21379;50.962;6.960;2023-03-23T17:53:57;14.60;99.90
35246;DHT22;21379;50.962;6.960;2023-03-23T17:56:24;14.60;99.90
35246;DHT22;21379;50.962;6.960;2023-03-23T17:58:52;14.50;99.90
35246;DHT22;21379;50.962;6.960;2023-03-23T18:01:19;14.60;99.90
35246;DHT22;21379;50.962;6.960;2023-03-23T18:03:46;14.60;99.90
35246;DHT22;21379;50.962;6.960;2023-03-23T18:06:13;14.60;99.90
35246;DHT22;21379;50.962;6.960;2023-03-23T18:08:40;14.50;99.90
35246;DHT22;21379;50.962;6.960;2023-03-23T18:11:07;14.50;99.90
35246;DHT22;21379;50.962;6.960;2023-03-23T18:13:35;14.50;99.90
35246;DHT22;21379;50.962;6.960;2023-03-23T18:16:05;14.40;99.90
35246;DHT22;21379;50.962;6.960;2023-03-23T18:18:32;14.40;99.90
35246;DHT22;21379;50.962;6.960;2023-03-23T18:21:02;14.40;99.90
35246;DHT22;21379;50.962;6.960;2023-03-23T18:23:30;14.40;99.90
35246;DHT22;21379;50.962;6.960;2023-03-23T18:26:01;14.40;99.90
35246;DHT22;21379;50.962;6.960;2023-03-23T18:28:28;14.40;99.90
35246;DHT22;21379;50.962;6.960;2023-03-23T18:31:01;14.40;99.90
35246;DHT22;21379;50.962;6.960;2023-03-23T18:33:30;14.40;99.90
35246;DHT22;21379;50.962;6.960;2023-03-23T18:35:57;14.40;99.90
35246;DHT22;21379;50.962;6.960;2023-03-23T18:38:25;14.40;99.90
35246;DHT22;21379;50.962;6.960;2023-03-23T18:40:52;14.40;99.90
35246;DHT22;21379;50.962;6.960;2023-03-23T18:43:20;14.40;99.90
35246;DHT22;21379;50.962;6.960;2023-03-23T18:45:51;14.40;99.90
35246;DHT22;21379;50.962;6.960;2023-03-23T18:48:18;14.40;99.90
35246;DHT22;21379;50.962;6.960;2023-03-23T18:50:47;14.40;99.90
35246;DHT22;21379;50.962;6.960;2023-03-23T18:53:15;14.40;99.90
35246;DHT22;21379;50.962;6.960;2023-03-23T18:55:43;14.40;99.90
35246;DHT22;21379;50.962;6.960;2023-03-23T18:58:11;14.50;99.90
35246;DHT22;21379;50.962;6.960;2023-03-23T19:00:38;14.40;99.90
35246;DHT22;21379;50.962;6.960;2023-03-23T19:03:05;14.40;99.90
35246;DHT22;21379;50.962;6.960;2023-03-23T19:05:35;14.40;99.90
35246;DHT22;21379;50.962;6.960;2023-03-23T19:08:05;14.40;99.90
35246;DHT22;21379;50.962;6.960;2023-03-23T19:10:39;14.30;99.90
35246;DHT22;21379;50.962;6.960;2023-03-23T19:13:06;14.30;99.90
35246;DHT22;21379;50.962;6.960;2023-03-23T19:15:36;14.20;99.90
35246;DHT22;21379;50.962;6.960;2023-03-23T19:18:04;14.20;99.90
35246;DHT22;21379;50.962;6.960;2023-03-23T19:20:31;14.30;99.90
35246;DHT22;21379;50.962;6.960;2023-03-23T19:22:58;14.20;99.90
35246;DHT22;21379;50.962;6.960;2023-03-23T19:25:26;14.10;99.90
35246;DHT22;21379;50.962;6.960;2023-03-23T19:27:53;14.20;99.90
35246;DHT22;21379;50.962;6.960;2023-03-23T19:30:20;14.20;99.90
35246;DHT22;21379;50.962;6.960;2023-03-23T19:32:47;14.10;99.90
35246;DHT22;21379;50.962;6.960;2023-03-23T19:35:14;14.10;99.90
35246;DHT22;21379;50.962;6.960;2023-03-23T19:37:41;14.10;99.90
35246;DHT22;21379;50.962;6.960;2023-03-23T19:40:09;14.20;99.90
35246;DHT22;21379;50.962;6.960;2023-03-23T19:42:37;14.20;99.90
35246;DHT22;21379;50.962;6.960;2023-03-23T19:45:05;14.20;99.90
35246;DHT22;21379;50.962;6.960;2023-03-23T19:47:33;14.30;99.90
35246;DHT22;21379;50.962;6.960;2023-03-23T19:50:00;14.20;99.90
35246;DHT22;21379;50.962;6.960;2023-03-23T19:52:27;14.20;99.90
35246;DHT22;21379;50.962;6.960;2023-03-23T19:54:54;14.30;99.90
35246;DHT22;21379;50.962;6.960;2023-03-23T19:57:21;14.20;99.90
35246;DHT22;21379;50.962;6.960;2023-03-23T19:59:49;14.20;99.90
35246;DHT22;21379;50.962;6.960;2023-03-23T20:02:16;14.20;99.90
35246;DHT22;21379;50.962;6.960;2023-03-23T20:04:43;14.20;99.90
35246;DHT22;21379;50.962;6.960;2023-03-23T20:07:10;14.30;99.90
35246;DHT22;21379;50.962;6.960;2023-03-23T20:09:37;14.30;99.90
35246;DHT22;21379;50.962;6.960;2023-03-23T20:12:04;14.20;99.90
35246;DHT22;21379;50.962;6.960;2023-03-23T20:14:32;14.20;99.90
35246;DHT22;21379;50.962;6.960;2023-03-23T20:17:00;14.20;99.90
35246;DHT22;21379;50.962;6.960;2023-03-23T20:19:27;14.20;99.90
35246;DHT22;21379;50.962;6.960;2023-03-23T20:21:55;14.20;99.90
35246;DHT22;21379;50.962;6.960;2023-03-23T20:24:22;14.20;99.90
35246;DHT22;21379;50.962;6.960;2023-03-23T20:26:49;14.20;99.90
35246;DHT22;21379;50.962;6.960;2023-03-23T20:29:16;14.20;99.90
35246;DHT22;21379;50.962;6.960;2023-03-23T20:31:43;14.20;99.90
35246;DHT22;21379;50.962;6.960;2023-03-23T20:34:14;14.10;99.90
35246;DHT22;21379;50.962;6.960;2023-03-23T20:36:56;14.10;99.90
35246;DHT22;21379;50.962;6.960;2023-03-23T20:39:25;14.10;99.90
35246;DHT22;21379;50.962;6.960;2023-03-23T20:41:56;14.10;99.90
35246;DHT22;21379;50.962;6.960;2023-03-23T20:44:25;14.20;99.90
35246;DHT22;21379;50.962;6.960;2023-03-23T20:46:54;14.10;99.90
35246;DHT22;21379;50.962;6.960;2023-03-23T20:49:23;14.10;99.90
35246;DHT22;21379;50.962;6.960;2023-03-23T20:51:51;14.10;99.90
35246;DHT22;21379;50.962;6.960;2023-03-23T20:54:19;14.10;99.90
35246;DHT22;21379;50.962;6.960;2023-03-23T20:56:47;14.10;99.90
35246;DHT22;21379;50.962;6.960;2023-03-23T20:59:15;14.10;99.90
35246;DHT22;21379;50.962;6.960;2023-03-23T21:01:42;14.10;99.90
35246;DHT22;21379;50.962;6.960;2023-03-23T21:04:17;14.10;99.90
35246;DHT22;21379;50.962;6.960;2023-03-23T21:06:46;14.10;99.90
35246;DHT22;21379;50.962;6.960;2023-03-23T21:09:14;14.10;99.90
35246;DHT22;21379;50.962;6.960;2023-03-23T21:11:42;14.10;99.90
35246;DHT22;21379;50.962;6.960;2023-03-23T21:14:09;14.10;99.90
35246;DHT22;21379;50.962;6.960;2023-03-23T21:16:36;14.10;99.90
35246;DHT22;21379;50.962;6.960;2023-03-23T21:19:04;14.10;99.90
35246;DHT22;21379;50.962;6.960;2023-03-23T21:21:32;14.10;99.90
35246;DHT22;21379;50.962;6.960;2023-03-23T21:24:00;14.10;99.90
35246;DHT22;21379;50.962;6.960;2023-03-23T21:26:28;14.10;99.90
35246;DHT22;21379;50.962;6.960;2023-03-23T21:28:56;14.10;99.90
35246;DHT22;21379;50.962;6.960;2023-03-23T21:31:26;14.10;99.90
35246;DHT22;21379;50.962;6.960;2023-03-23T21:33:55;14.10;99.90